sensor_id;sensor_type;location;lat;lon;timestamp;P1;durP1;ratioP1;P2;durP2;ratioP2
40164;SDS011;25882;51.120;17.248;2023-03-14T00:01:07;100.47;;;37.08;;
40164;SDS011;25882;51.120;17.248;2023-03-14T00:03:35;25.48;;;12.85;;
40164;SDS011;25882;51.120;17.248;2023-03-14T00:06:01;30.83;;;14.77;;
40164;SDS011;25882;51.120;17.248;2023-03-14T00:08:28;17.45;;;9.63;;
40164;SDS011;25882;51.120;17.248;2023-03-14T00:10:54;10.43;;;6.10;;
40164;SDS011;25882;51.120;17.248;2023-03-14T00:13:21;9.70;;;5.65;;
40164;SDS011;25882;51.120;17.248;2023-03-14T00:15:47;16.23;;;7.32;;
40164;SDS011;25882;51.120;17.248;2023-03-14T00:18:13;16.80;;;8.68;;
40164;SDS011;25882;51.120;17.248;2023-03-14T00:20:41;20.10;;;10.07;;
40164;SDS011;25882;51.120;17.248;2023-03-14T00:23:07;19.38;;;9.52;;
40164;SDS011;25882;51.120;17.248;2023-03-14T00:25:34;13.90;;;7.80;;
40164;SDS011;25882;51.120;17.248;2023-03-14T00:28:01;20.25;;;9.75;;
40164;SDS011;25882;51.120;17.248;2023-03-14T00:30:27;17.50;;;9.00;;
40164;SDS011;25882;51.120;17.248;2023-03-14T00:32:53;19.83;;;10.07;;
40164;SDS011;25882;51.120;17.248;2023-03-14T00:35:19;21.15;;;10.20;;
40164;SDS011;25882;51.120;17.248;2023-03-14T00:37:47;19.13;;;10.35;;
40164;SDS011;25882;51.120;17.248;2023-03-14T00:40:13;20.30;;;10.60;;
40164;SDS011;25882;51.120;17.248;2023-03-14T00:42:40;35.05;;;16.63;;
40164;SDS011;25882;51.120;17.248;2023-03-14T00:45:06;35.17;;;16.60;;
40164;SDS011;25882;51.120;17.248;2023-03-14T00:47:34;34.47;;;17.30;;
40164;SDS011;25882;51.120;17.248;2023-03-14T00:50:00;32.00;;;17.70;;
40164;SDS011;25882;51.120;17.248;2023-03-14T00:52:27;28.85;;;16.67;;
40164;SDS011;25882;51.120;17.248;2023-03-14T00:54:55;40.47;;;18.25;;
40164;SDS011;25882;51.120;17.248;2023-03-14T00:57:22;31.45;;;16.20;;
40164;SDS011;25882;51.120;17.248;2023-03-14T00:59:48;30.83;;;16.08;;
40164;SDS011;25882;51.120;17.248;2023-03-14T01:02:14;28.58;;;15.50;;
40164;SDS011;25882;51.120;17.248;2023-03-14T01:04:40;24.88;;;11.90;;
40164;SDS011;25882;51.120;17.248;2023-03-14T01:07:08;17.27;;;9.90;;
40164;SDS011;25882;51.120;17.248;2023-03-14T01:09:35;22.65;;;11.50;;
40164;SDS011;25882;51.120;17.248;2023-03-14T01:12:03;27.30;;;12.02;;
40164;SDS011;25882;51.120;17.248;2023-03-14T01:14:31;35.33;;;15.60;;
40164;SDS011;25882;51.120;17.248;2023-03-14T01:16:57;30.73;;;13.52;;
40164;SDS011;25882;51.120;17.248;2023-03-14T01:19:26;31.52;;;13.73;;
40164;SDS011;25882;51.120;17.248;2023-03-14T01:21:53;26.00;;;12.63;;
40164;SDS011;25882;51.120;17.248;2023-03-14T01:24:19;23.25;;;12.82;;
40164;SDS011;25882;51.120;17.248;2023-03-14T01:26:46;24.63;;;12.95;;
40164;SDS011;25882;51.120;17.248;2023-03-14T01:29:13;20.70;;;12.10;;
40164;SDS011;25882;51.120;17.248;2023-03-14T01:31:40;21.33;;;11.60;;
40164;SDS011;25882;51.120;17.248;2023-03-14T01:34:06;16.70;;;9.25;;
40164;SDS011;25882;51.120;17.248;2023-03-14T01:36:32;10.48;;;6.68;;
40164;SDS011;25882;51.120;17.248;2023-03-14T01:38:58;14.93;;;8.80;;
40164;SDS011;25882;51.120;17.248;2023-03-14T01:41:25;15.15;;;6.85;;
40164;SDS011;25882;51.120;17.248;2023-03-14T01:43:51;13.20;;;6.60;;
40164;SDS011;25882;51.120;17.248;2023-03-14T01:49:15;13.18;;;7.95;;
40164;SDS011;25882;51.120;17.248;2023-03-14T01:51:45;13.27;;;5.88;;
40164;SDS011;25882;51.120;17.248;2023-03-14T01:54:16;10.75;;;5.75;;
40164;SDS011;25882;51.120;17.248;2023-03-14T01:56:48;8.88;;;5.18;;
40164;SDS011;25882;51.120;17.248;2023-03-14T01:59:17;12.05;;;5.10;;
40164;SDS011;25882;51.120;17.248;2023-03-14T02:05:24;12.57;;;6.63;;
40164;SDS011;25882;51.120;17.248;2023-03-14T02:07:53;11.05;;;6.20;;
40164;SDS011;25882;51.120;17.248;2023-03-14T02:12:56;11.40;;;6.55;;
40164;SDS011;25882;51.120;17.248;2023-03-14T02:15:23;11.63;;;5.95;;
40164;SDS011;25882;51.120;17.248;2023-03-14T02:17:49;9.88;;;7.20;;
40164;SDS011;25882;51.120;17.248;2023-03-14T02:20:21;11.20;;;5.43;;
40164;SDS011;25882;51.120;17.248;2023-03-14T02:22:53;13.38;;;9.63;;
40164;SDS011;25882;51.120;17.248;2023-03-14T02:25:21;8.55;;;5.45;;
40164;SDS011;25882;51.120;17.248;2023-03-14T02:27:51;9.82;;;5.43;;
40164;SDS011;25882;51.120;17.248;2023-03-14T02:32:46;9.07;;;5.80;;
40164;SDS011;25882;51.120;17.248;2023-03-14T02:35:14;12.20;;;5.90;;
40164;SDS011;25882;51.120;17.248;2023-03-14T02:37:44;9.77;;;5.93;;
40164;SDS011;25882;51.120;17.248;2023-03-14T02:40:13;8.65;;;4.68;;
40164;SDS011;25882;51.120;17.248;2023-03-14T02:42:39;11.70;;;6.00;;
40164;SDS011;25882;51.120;17.248;2023-03-14T02:48:07;9.93;;;4.57;;
40164;SDS011;25882;51.120;17.248;2023-03-14T02:50:37;7.43;;;4.47;;
40164;SDS011;25882;51.120;17.248;2023-03-14T02:53:04;8.57;;;4.47;;
40164;SDS011;25882;51.120;17.248;2023-03-14T02:55:31;9.93;;;4.93;;
40164;SDS011;25882;51.120;17.248;2023-03-14T02:57:57;10.43;;;4.70;;
40164;SDS011;25882;51.120;17.248;2023-03-14T03:03:59;7.25;;;5.32;;
40164;SDS011;25882;51.120;17.248;2023-03-14T03:06:25;10.27;;;4.95;;
40164;SDS011;25882;51.120;17.248;2023-03-14T03:08:52;7.40;;;4.53;;
40164;SDS011;25882;51.120;17.248;2023-03-14T03:11:18;18.67;;;7.72;;
40164;SDS011;25882;51.120;17.248;2023-03-14T03:13:44;5.15;;;3.38;;
40164;SDS011;25882;51.120;17.248;2023-03-14T03:16:10;5.68;;;4.00;;
40164;SDS011;25882;51.120;17.248;2023-03-14T03:18:39;5.45;;;3.50;;
40164;SDS011;25882;51.120;17.248;2023-03-14T03:21:08;7.70;;;3.30;;
40164;SDS011;25882;51.120;17.248;2023-03-14T03:23:35;6.75;;;3.50;;
40164;SDS011;25882;51.120;17.248;2023-03-14T03:26:02;6.50;;;3.10;;
40164;SDS011;25882;51.120;17.248;2023-03-14T03:30:58;6.75;;;2.92;;
40164;SDS011;25882;51.120;17.248;2023-03-14T03:33:24;8.13;;;3.53;;
40164;SDS011;25882;51.120;17.248;2023-03-14T03:35:51;5.93;;;3.03;;
40164;SDS011;25882;51.120;17.248;2023-03-14T03:38:19;5.40;;;3.13;;
40164;SDS011;25882;51.120;17.248;2023-03-14T03:40:45;6.50;;;3.42;;
40164;SDS011;25882;51.120;17.248;2023-03-14T03:43:12;6.85;;;2.90;;
40164;SDS011;25882;51.120;17.248;2023-03-14T03:45:38;7.53;;;3.67;;
40164;SDS011;25882;51.120;17.248;2023-03-14T03:48:05;8.88;;;2.88;;
40164;SDS011;25882;51.120;17.248;2023-03-14T03:50:31;5.63;;;2.72;;
40164;SDS011;25882;51.120;17.248;2023-03-14T03:52:58;4.25;;;2.58;;
40164;SDS011;25882;51.120;17.248;2023-03-14T03:55:25;5.22;;;2.88;;
40164;SDS011;25882;51.120;17.248;2023-03-14T03:57:54;5.43;;;2.97;;
40164;SDS011;25882;51.120;17.248;2023-03-14T04:00:20;7.25;;;3.33;;
40164;SDS011;25882;51.120;17.248;2023-03-14T04:02:47;5.53;;;3.00;;
40164;SDS011;25882;51.120;17.248;2023-03-14T04:05:13;5.25;;;2.90;;
40164;SDS011;25882;51.120;17.248;2023-03-14T04:07:40;4.53;;;2.53;;
40164;SDS011;25882;51.120;17.248;2023-03-14T04:10:06;5.05;;;2.80;;
40164;SDS011;25882;51.120;17.248;2023-03-14T04:12:35;5.03;;;2.90;;
40164;SDS011;25882;51.120;17.248;2023-03-14T04:15:01;4.82;;;2.95;;
40164;SDS011;25882;51.120;17.248;2023-03-14T04:17:28;7.65;;;3.22;;
40164;SDS011;25882;51.120;17.248;2023-03-14T04:19:54;7.47;;;3.47;;
40164;SDS011;25882;51.120;17.248;2023-03-14T04:22:21;4.28;;;2.70;;
40164;SDS011;25882;51.120;17.248;2023-03-14T04:24:47;3.95;;;2.70;;
40164;SDS011;25882;51.120;17.248;2023-03-14T04:27:14;4.63;;;2.78;;
40164;SDS011;25882;51.120;17.248;2023-03-14T04:29:41;10.40;;;4.47;;
40164;SDS011;25882;51.120;17.248;2023-03-14T04:32:08;14.85;;;7.88;;
40164;SDS011;25882;51.120;17.248;2023-03-14T04:34:35;15.52;;;7.78;;
40164;SDS011;25882;51.120;17.248;2023-03-14T04:37:01;12.70;;;4.80;;
40164;SDS011;25882;51.120;17.248;2023-03-14T04:39:28;8.30;;;4.13;;
40164;SDS011;25882;51.120;17.248;2023-03-14T04:41:54;6.68;;;3.25;;
40164;SDS011;25882;51.120;17.248;2023-03-14T04:44:20;7.90;;;3.00;;
40164;SDS011;25882;51.120;17.248;2023-03-14T04:46:49;4.25;;;2.72;;
40164;SDS011;25882;51.120;17.248;2023-03-14T04:49:15;6.15;;;3.22;;
40164;SDS011;25882;51.120;17.248;2023-03-14T04:51:42;6.32;;;3.50;;
40164;SDS011;25882;51.120;17.248;2023-03-14T04:54:08;7.60;;;4.60;;
40164;SDS011;25882;51.120;17.248;2023-03-14T04:56:34;13.00;;;4.57;;
40164;SDS011;25882;51.120;17.248;2023-03-14T04:59:02;12.80;;;5.25;;
40164;SDS011;25882;51.120;17.248;2023-03-14T05:01:28;13.98;;;5.35;;
40164;SDS011;25882;51.120;17.248;2023-03-14T05:03:56;11.07;;;4.57;;
40164;SDS011;25882;51.120;17.248;2023-03-14T05:06:22;7.40;;;4.07;;
40164;SDS011;25882;51.120;17.248;2023-03-14T05:08:49;9.88;;;4.95;;
40164;SDS011;25882;51.120;17.248;2023-03-14T05:11:15;8.90;;;4.35;;
40164;SDS011;25882;51.120;17.248;2023-03-14T05:13:42;7.47;;;3.72;;
40164;SDS011;25882;51.120;17.248;2023-03-14T05:16:09;9.75;;;4.72;;
40164;SDS011;25882;51.120;17.248;2023-03-14T05:18:36;8.50;;;3.90;;
40164;SDS011;25882;51.120;17.248;2023-03-14T05:21:04;5.03;;;3.22;;
40164;SDS011;25882;51.120;17.248;2023-03-14T05:23:31;5.78;;;3.53;;
40164;SDS011;25882;51.120;17.248;2023-03-14T05:25:57;6.80;;;3.72;;
40164;SDS011;25882;51.120;17.248;2023-03-14T05:28:24;6.47;;;3.20;;
40164;SDS011;25882;51.120;17.248;2023-03-14T05:30:50;5.30;;;3.15;;
40164;SDS011;25882;51.120;17.248;2023-03-14T05:33:17;6.43;;;3.38;;
40164;SDS011;25882;51.120;17.248;2023-03-14T05:35:43;9.60;;;3.75;;
40164;SDS011;25882;51.120;17.248;2023-03-14T05:38:11;9.48;;;3.13;;
40164;SDS011;25882;51.120;17.248;2023-03-14T05:40:37;6.28;;;3.60;;
40164;SDS011;25882;51.120;17.248;2023-03-14T05:43:04;5.10;;;3.00;;
40164;SDS011;25882;51.120;17.248;2023-03-14T05:45:30;6.63;;;3.25;;
40164;SDS011;25882;51.120;17.248;2023-03-14T05:47:57;8.30;;;3.25;;
40164;SDS011;25882;51.120;17.248;2023-03-14T05:50:23;6.60;;;3.40;;
40164;SDS011;25882;51.120;17.248;2023-03-14T05:52:50;9.13;;;3.22;;
40164;SDS011;25882;51.120;17.248;2023-03-14T05:55:18;5.35;;;3.40;;
40164;SDS011;25882;51.120;17.248;2023-03-14T05:57:44;7.75;;;3.53;;
40164;SDS011;25882;51.120;17.248;2023-03-14T06:00:12;7.15;;;3.55;;
40164;SDS011;25882;51.120;17.248;2023-03-14T06:02:39;12.00;;;6.85;;
40164;SDS011;25882;51.120;17.248;2023-03-14T06:05:06;15.02;;;5.32;;
40164;SDS011;25882;51.120;17.248;2023-03-14T06:07:33;8.88;;;5.05;;
40164;SDS011;25882;51.120;17.248;2023-03-14T06:09:59;6.13;;;3.40;;
40164;SDS011;25882;51.120;17.248;2023-03-14T06:12:27;9.82;;;3.60;;
40164;SDS011;25882;51.120;17.248;2023-03-14T06:14:53;8.55;;;4.15;;
40164;SDS011;25882;51.120;17.248;2023-03-14T06:17:20;9.50;;;4.07;;
40164;SDS011;25882;51.120;17.248;2023-03-14T06:19:46;9.23;;;4.30;;
40164;SDS011;25882;51.120;17.248;2023-03-14T06:22:13;6.65;;;3.90;;
40164;SDS011;25882;51.120;17.248;2023-03-14T06:24:39;8.68;;;4.03;;
40164;SDS011;25882;51.120;17.248;2023-03-14T06:27:05;6.47;;;3.83;;
40164;SDS011;25882;51.120;17.248;2023-03-14T06:29:33;7.18;;;3.28;;
40164;SDS011;25882;51.120;17.248;2023-03-14T06:32:00;5.60;;;3.33;;
40164;SDS011;25882;51.120;17.248;2023-03-14T06:34:26;10.68;;;4.50;;
40164;SDS011;25882;51.120;17.248;2023-03-14T06:36:53;9.02;;;4.10;;
40164;SDS011;25882;51.120;17.248;2023-03-14T06:39:19;8.88;;;4.72;;
40164;SDS011;25882;51.120;17.248;2023-03-14T06:41:45;7.30;;;3.42;;
40164;SDS011;25882;51.120;17.248;2023-03-14T06:44:12;8.50;;;3.90;;
40164;SDS011;25882;51.120;17.248;2023-03-14T06:46:39;7.00;;;3.28;;
40164;SDS011;25882;51.120;17.248;2023-03-14T06:49:06;9.30;;;3.78;;
40164;SDS011;25882;51.120;17.248;2023-03-14T06:51:32;7.55;;;3.88;;
40164;SDS011;25882;51.120;17.248;2023-03-14T06:53:58;11.13;;;4.78;;
40164;SDS011;25882;51.120;17.248;2023-03-14T06:56:25;6.55;;;4.03;;
40164;SDS011;25882;51.120;17.248;2023-03-14T06:58:51;6.93;;;3.65;;
40164;SDS011;25882;51.120;17.248;2023-03-14T07:01:20;8.32;;;3.90;;
40164;SDS011;25882;51.120;17.248;2023-03-14T07:03:50;9.30;;;4.35;;
40164;SDS011;25882;51.120;17.248;2023-03-14T07:06:16;14.18;;;6.38;;
40164;SDS011;25882;51.120;17.248;2023-03-14T07:08:42;7.97;;;3.60;;
40164;SDS011;25882;51.120;17.248;2023-03-14T07:11:10;7.65;;;4.85;;
40164;SDS011;25882;51.120;17.248;2023-03-14T07:13:36;7.88;;;4.05;;
40164;SDS011;25882;51.120;17.248;2023-03-14T07:16:03;11.63;;;5.15;;
40164;SDS011;25882;51.120;17.248;2023-03-14T07:18:30;7.90;;;4.28;;
40164;SDS011;25882;51.120;17.248;2023-03-14T07:20:58;14.73;;;6.93;;
40164;SDS011;25882;51.120;17.248;2023-03-14T07:23:24;11.57;;;4.85;;
40164;SDS011;25882;51.120;17.248;2023-03-14T07:25:51;7.35;;;3.45;;
40164;SDS011;25882;51.120;17.248;2023-03-14T07:28:19;7.10;;;3.58;;
40164;SDS011;25882;51.120;17.248;2023-03-14T07:30:46;5.57;;;3.40;;
40164;SDS011;25882;51.120;17.248;2023-03-14T07:33:12;7.70;;;3.13;;
40164;SDS011;25882;51.120;17.248;2023-03-14T07:35:39;7.85;;;3.63;;
40164;SDS011;25882;51.120;17.248;2023-03-14T07:38:07;6.78;;;3.25;;
40164;SDS011;25882;51.120;17.248;2023-03-14T07:40:33;4.82;;;2.70;;
40164;SDS011;25882;51.120;17.248;2023-03-14T07:43:00;7.07;;;3.38;;
40164;SDS011;25882;51.120;17.248;2023-03-14T07:45:26;9.73;;;3.22;;
40164;SDS011;25882;51.120;17.248;2023-03-14T07:47:53;7.00;;;3.38;;
40164;SDS011;25882;51.120;17.248;2023-03-14T07:50:23;7.78;;;3.67;;
40164;SDS011;25882;51.120;17.248;2023-03-14T07:52:49;6.57;;;3.38;;
40164;SDS011;25882;51.120;17.248;2023-03-14T07:55:17;8.93;;;3.55;;
40164;SDS011;25882;51.120;17.248;2023-03-14T07:57:43;12.00;;;3.67;;
40164;SDS011;25882;51.120;17.248;2023-03-14T08:00:10;11.07;;;3.97;;
40164;SDS011;25882;51.120;17.248;2023-03-14T08:02:39;6.70;;;3.80;;
40164;SDS011;25882;51.120;17.248;2023-03-14T08:05:06;7.22;;;4.25;;
40164;SDS011;25882;51.120;17.248;2023-03-14T08:07:33;11.57;;;5.05;;
40164;SDS011;25882;51.120;17.248;2023-03-14T08:10:00;6.18;;;3.28;;
40164;SDS011;25882;51.120;17.248;2023-03-14T08:12:28;5.75;;;3.40;;
40164;SDS011;25882;51.120;17.248;2023-03-14T08:14:54;7.25;;;3.72;;
40164;SDS011;25882;51.120;17.248;2023-03-14T08:17:20;9.02;;;3.50;;
40164;SDS011;25882;51.120;17.248;2023-03-14T08:19:47;5.60;;;4.00;;
40164;SDS011;25882;51.120;17.248;2023-03-14T08:22:13;7.47;;;3.63;;
40164;SDS011;25882;51.120;17.248;2023-03-14T08:24:40;7.40;;;3.75;;
40164;SDS011;25882;51.120;17.248;2023-03-14T08:27:06;8.95;;;4.07;;
40164;SDS011;25882;51.120;17.248;2023-03-14T08:29:35;7.53;;;4.47;;
40164;SDS011;25882;51.120;17.248;2023-03-14T08:32:01;8.30;;;3.60;;
40164;SDS011;25882;51.120;17.248;2023-03-14T08:34:27;7.03;;;4.47;;
40164;SDS011;25882;51.120;17.248;2023-03-14T08:36:54;9.68;;;4.68;;
40164;SDS011;25882;51.120;17.248;2023-03-14T08:39:23;8.68;;;4.63;;
40164;SDS011;25882;51.120;17.248;2023-03-14T08:41:49;8.02;;;4.57;;
40164;SDS011;25882;51.120;17.248;2023-03-14T08:44:16;9.57;;;4.93;;
40164;SDS011;25882;51.120;17.248;2023-03-14T08:46:43;16.48;;;5.28;;
40164;SDS011;25882;51.120;17.248;2023-03-14T08:49:10;9.40;;;4.78;;
40164;SDS011;25882;51.120;17.248;2023-03-14T08:51:36;10.05;;;6.15;;
40164;SDS011;25882;51.120;17.248;2023-03-14T08:54:02;9.23;;;4.97;;
40164;SDS011;25882;51.120;17.248;2023-03-14T08:56:29;11.82;;;5.50;;
40164;SDS011;25882;51.120;17.248;2023-03-14T08:58:56;16.10;;;5.90;;
40164;SDS011;25882;51.120;17.248;2023-03-14T09:01:22;10.40;;;5.95;;
40164;SDS011;25882;51.120;17.248;2023-03-14T09:03:52;8.98;;;5.97;;
40164;SDS011;25882;51.120;17.248;2023-03-14T09:06:18;9.00;;;5.25;;
40164;SDS011;25882;51.120;17.248;2023-03-14T09:08:45;12.10;;;6.10;;
40164;SDS011;25882;51.120;17.248;2023-03-14T09:11:12;10.52;;;5.80;;
40164;SDS011;25882;51.120;17.248;2023-03-14T09:13:39;14.75;;;6.90;;
40164;SDS011;25882;51.120;17.248;2023-03-14T09:16:06;14.70;;;7.85;;
40164;SDS011;25882;51.120;17.248;2023-03-14T09:18:33;13.73;;;6.82;;
40164;SDS011;25882;51.120;17.248;2023-03-14T09:21:00;11.60;;;6.93;;
40164;SDS011;25882;51.120;17.248;2023-03-14T09:23:27;8.93;;;6.05;;
40164;SDS011;25882;51.120;17.248;2023-03-14T09:25:54;11.48;;;5.93;;
40164;SDS011;25882;51.120;17.248;2023-03-14T09:28:21;9.48;;;5.50;;
40164;SDS011;25882;51.120;17.248;2023-03-14T09:30:47;9.35;;;5.40;;
40164;SDS011;25882;51.120;17.248;2023-03-14T09:33:15;9.68;;;5.10;;
40164;SDS011;25882;51.120;17.248;2023-03-14T09:35:41;8.85;;;5.65;;
40164;SDS011;25882;51.120;17.248;2023-03-14T09:38:09;8.30;;;5.18;;
40164;SDS011;25882;51.120;17.248;2023-03-14T09:40:36;8.25;;;5.13;;
40164;SDS011;25882;51.120;17.248;2023-03-14T09:43:03;11.02;;;5.18;;
40164;SDS011;25882;51.120;17.248;2023-03-14T09:45:31;8.27;;;5.00;;
40164;SDS011;25882;51.120;17.248;2023-03-14T09:47:59;11.27;;;5.72;;
40164;SDS011;25882;51.120;17.248;2023-03-14T09:50:30;8.63;;;5.18;;
40164;SDS011;25882;51.120;17.248;2023-03-14T09:53:02;10.82;;;5.07;;
40164;SDS011;25882;51.120;17.248;2023-03-14T09:55:32;9.52;;;4.80;;
40164;SDS011;25882;51.120;17.248;2023-03-14T09:58:01;10.20;;;4.55;;
40164;SDS011;25882;51.120;17.248;2023-03-14T10:00:30;7.35;;;4.28;;
40164;SDS011;25882;51.120;17.248;2023-03-14T10:02:59;6.80;;;4.35;;
40164;SDS011;25882;51.120;17.248;2023-03-14T10:05:31;9.40;;;5.25;;
40164;SDS011;25882;51.120;17.248;2023-03-14T10:07:58;8.50;;;4.45;;
40164;SDS011;25882;51.120;17.248;2023-03-14T10:10:24;6.93;;;3.92;;
40164;SDS011;25882;51.120;17.248;2023-03-14T10:12:56;6.55;;;4.38;;
40164;SDS011;25882;51.120;17.248;2023-03-14T10:15:24;11.25;;;5.22;;
40164;SDS011;25882;51.120;17.248;2023-03-14T10:17:52;10.93;;;5.03;;
40164;SDS011;25882;51.120;17.248;2023-03-14T10:20:31;8.43;;;4.88;;
40164;SDS011;25882;51.120;17.248;2023-03-14T10:22:59;10.85;;;4.65;;
40164;SDS011;25882;51.120;17.248;2023-03-14T10:25:26;11.38;;;5.57;;
40164;SDS011;25882;51.120;17.248;2023-03-14T10:27:56;7.38;;;4.40;;
40164;SDS011;25882;51.120;17.248;2023-03-14T10:30:37;10.77;;;5.35;;
40164;SDS011;25882;51.120;17.248;2023-03-14T10:33:10;10.98;;;5.68;;
40164;SDS011;25882;51.120;17.248;2023-03-14T10:35:37;8.43;;;5.15;;
40164;SDS011;25882;51.120;17.248;2023-03-14T10:38:04;11.88;;;6.05;;
40164;SDS011;25882;51.120;17.248;2023-03-14T10:40:31;7.90;;;5.28;;
40164;SDS011;25882;51.120;17.248;2023-03-14T10:43:01;7.85;;;4.63;;
40164;SDS011;25882;51.120;17.248;2023-03-14T10:45:36;7.00;;;4.65;;
40164;SDS011;25882;51.120;17.248;2023-03-14T10:48:16;10.20;;;5.22;;
40164;SDS011;25882;51.120;17.248;2023-03-14T10:50:49;10.77;;;6.03;;
40164;SDS011;25882;51.120;17.248;2023-03-14T10:53:19;8.50;;;4.93;;
40164;SDS011;25882;51.120;17.248;2023-03-14T10:55:46;9.88;;;5.40;;
40164;SDS011;25882;51.120;17.248;2023-03-14T10:58:27;7.05;;;4.63;;
40164;SDS011;25882;51.120;17.248;2023-03-14T11:01:02;8.90;;;5.13;;
40164;SDS011;25882;51.120;17.248;2023-03-14T11:03:35;8.30;;;4.90;;
40164;SDS011;25882;51.120;17.248;2023-03-14T11:06:04;11.82;;;5.57;;
40164;SDS011;25882;51.120;17.248;2023-03-14T11:08:34;9.43;;;5.32;;
40164;SDS011;25882;51.120;17.248;2023-03-14T11:11:09;10.60;;;5.47;;
40164;SDS011;25882;51.120;17.248;2023-03-14T11:13:43;9.63;;;5.00;;
40164;SDS011;25882;51.120;17.248;2023-03-14T11:16:16;10.77;;;4.75;;
40164;SDS011;25882;51.120;17.248;2023-03-14T11:18:57;7.85;;;4.30;;
40164;SDS011;25882;51.120;17.248;2023-03-14T11:21:41;9.98;;;4.38;;
40164;SDS011;25882;51.120;17.248;2023-03-14T11:26:41;11.10;;;4.82;;
40164;SDS011;25882;51.120;17.248;2023-03-14T11:31:42;8.90;;;4.30;;
40164;SDS011;25882;51.120;17.248;2023-03-14T11:34:10;11.10;;;4.43;;
40164;SDS011;25882;51.120;17.248;2023-03-14T11:36:42;7.90;;;4.60;;
40164;SDS011;25882;51.120;17.248;2023-03-14T11:39:13;9.48;;;4.05;;
40164;SDS011;25882;51.120;17.248;2023-03-14T11:41:41;7.70;;;4.63;;
40164;SDS011;25882;51.120;17.248;2023-03-14T11:44:13;8.68;;;3.90;;
40164;SDS011;25882;51.120;17.248;2023-03-14T11:46:46;9.40;;;4.50;;
40164;SDS011;25882;51.120;17.248;2023-03-14T11:49:16;10.90;;;5.18;;
40164;SDS011;25882;51.120;17.248;2023-03-14T11:51:50;37.80;;;16.67;;
40164;SDS011;25882;51.120;17.248;2023-03-14T11:54:18;16.83;;;7.88;;
40164;SDS011;25882;51.120;17.248;2023-03-14T11:56:51;8.40;;;4.60;;
40164;SDS011;25882;51.120;17.248;2023-03-14T11:59:21;7.18;;;3.90;;
40164;SDS011;25882;51.120;17.248;2023-03-14T12:01:52;13.88;;;7.05;;
40164;SDS011;25882;51.120;17.248;2023-03-14T12:04:22;21.77;;;10.77;;
40164;SDS011;25882;51.120;17.248;2023-03-14T12:06:56;7.63;;;4.00;;
40164;SDS011;25882;51.120;17.248;2023-03-14T12:09:23;11.50;;;4.50;;
40164;SDS011;25882;51.120;17.248;2023-03-14T12:11:51;10.82;;;6.22;;
40164;SDS011;25882;51.120;17.248;2023-03-14T12:14:25;9.57;;;6.38;;
40164;SDS011;25882;51.120;17.248;2023-03-14T12:16:56;8.73;;;4.53;;
40164;SDS011;25882;51.120;17.248;2023-03-14T12:19:28;8.27;;;4.20;;
40164;SDS011;25882;51.120;17.248;2023-03-14T12:21:58;9.23;;;4.90;;
40164;SDS011;25882;51.120;17.248;2023-03-14T12:24:26;8.55;;;4.03;;
40164;SDS011;25882;51.120;17.248;2023-03-14T12:26:55;8.40;;;4.38;;
40164;SDS011;25882;51.120;17.248;2023-03-14T12:29:24;8.73;;;3.45;;
40164;SDS011;25882;51.120;17.248;2023-03-14T12:32:06;8.13;;;4.70;;
40164;SDS011;25882;51.120;17.248;2023-03-14T12:34:34;6.63;;;4.07;;
40164;SDS011;25882;51.120;17.248;2023-03-14T12:37:12;5.75;;;3.65;;
40164;SDS011;25882;51.120;17.248;2023-03-14T12:42:14;5.93;;;3.35;;
40164;SDS011;25882;51.120;17.248;2023-03-14T12:44:47;7.88;;;4.28;;
40164;SDS011;25882;51.120;17.248;2023-03-14T12:50:31;5.78;;;3.85;;
40164;SDS011;25882;51.120;17.248;2023-03-14T12:55:54;7.80;;;4.65;;
40164;SDS011;25882;51.120;17.248;2023-03-14T12:58:24;9.40;;;3.97;;
40164;SDS011;25882;51.120;17.248;2023-03-14T13:00:59;7.97;;;4.55;;
40164;SDS011;25882;51.120;17.248;2023-03-14T13:03:27;7.47;;;3.80;;
40164;SDS011;25882;51.120;17.248;2023-03-14T13:06:04;5.95;;;3.72;;
40164;SDS011;25882;51.120;17.248;2023-03-14T13:08:35;5.93;;;3.40;;
40164;SDS011;25882;51.120;17.248;2023-03-14T13:11:04;7.75;;;3.95;;
40164;SDS011;25882;51.120;17.248;2023-03-14T13:13:34;6.40;;;3.75;;
40164;SDS011;25882;51.120;17.248;2023-03-14T13:16:02;7.05;;;3.80;;
40164;SDS011;25882;51.120;17.248;2023-03-14T13:18:32;6.53;;;3.45;;
40164;SDS011;25882;51.120;17.248;2023-03-14T13:21:02;6.50;;;3.78;;
40164;SDS011;25882;51.120;17.248;2023-03-14T13:23:30;6.32;;;3.50;;
40164;SDS011;25882;51.120;17.248;2023-03-14T13:25:58;6.63;;;4.72;;
40164;SDS011;25882;51.120;17.248;2023-03-14T13:28:25;8.30;;;4.82;;
40164;SDS011;25882;51.120;17.248;2023-03-14T13:30:54;8.05;;;4.30;;
40164;SDS011;25882;51.120;17.248;2023-03-14T13:33:23;9.38;;;5.30;;
40164;SDS011;25882;51.120;17.248;2023-03-14T13:35:54;11.68;;;5.72;;
40164;SDS011;25882;51.120;17.248;2023-03-14T13:38:22;10.68;;;5.75;;
40164;SDS011;25882;51.120;17.248;2023-03-14T13:40:50;9.80;;;5.00;;
40164;SDS011;25882;51.120;17.248;2023-03-14T13:43:18;9.50;;;5.20;;
40164;SDS011;25882;51.120;17.248;2023-03-14T13:45:53;9.93;;;4.85;;
40164;SDS011;25882;51.120;17.248;2023-03-14T13:48:25;11.35;;;5.60;;
40164;SDS011;25882;51.120;17.248;2023-03-14T13:50:54;9.10;;;4.85;;
40164;SDS011;25882;51.120;17.248;2023-03-14T13:53:22;7.15;;;4.57;;
40164;SDS011;25882;51.120;17.248;2023-03-14T13:55:49;7.97;;;4.60;;
40164;SDS011;25882;51.120;17.248;2023-03-14T13:58:20;10.95;;;4.63;;
40164;SDS011;25882;51.120;17.248;2023-03-14T14:03:41;8.05;;;4.90;;
40164;SDS011;25882;51.120;17.248;2023-03-14T14:06:10;8.52;;;4.20;;
40164;SDS011;25882;51.120;17.248;2023-03-14T14:08:45;12.05;;;6.47;;
40164;SDS011;25882;51.120;17.248;2023-03-14T14:11:14;8.27;;;4.70;;
40164;SDS011;25882;51.120;17.248;2023-03-14T14:13:45;12.57;;;5.80;;
40164;SDS011;25882;51.120;17.248;2023-03-14T14:16:12;7.55;;;5.03;;
40164;SDS011;25882;51.120;17.248;2023-03-14T14:18:40;16.60;;;7.50;;
40164;SDS011;25882;51.120;17.248;2023-03-14T14:21:08;11.77;;;6.25;;
40164;SDS011;25882;51.120;17.248;2023-03-14T14:23:35;14.40;;;7.07;;
40164;SDS011;25882;51.120;17.248;2023-03-14T14:26:05;12.45;;;5.82;;
40164;SDS011;25882;51.120;17.248;2023-03-14T14:28:32;13.43;;;7.25;;
40164;SDS011;25882;51.120;17.248;2023-03-14T14:31:15;9.65;;;6.13;;
40164;SDS011;25882;51.120;17.248;2023-03-14T14:33:52;12.82;;;6.28;;
40164;SDS011;25882;51.120;17.248;2023-03-14T14:36:23;12.38;;;6.15;;
40164;SDS011;25882;51.120;17.248;2023-03-14T14:38:52;9.90;;;5.63;;
40164;SDS011;25882;51.120;17.248;2023-03-14T14:41:20;20.70;;;9.00;;
40164;SDS011;25882;51.120;17.248;2023-03-14T14:43:46;14.30;;;6.53;;
40164;SDS011;25882;51.120;17.248;2023-03-14T14:46:15;12.88;;;5.88;;
40164;SDS011;25882;51.120;17.248;2023-03-14T14:48:44;26.88;;;11.43;;
40164;SDS011;25882;51.120;17.248;2023-03-14T14:51:23;11.77;;;6.75;;
40164;SDS011;25882;51.120;17.248;2023-03-14T14:53:59;8.35;;;5.18;;
40164;SDS011;25882;51.120;17.248;2023-03-14T14:56:29;10.38;;;5.60;;
40164;SDS011;25882;51.120;17.248;2023-03-14T14:58:56;9.55;;;5.22;;
40164;SDS011;25882;51.120;17.248;2023-03-14T15:01:24;9.60;;;4.95;;
40164;SDS011;25882;51.120;17.248;2023-03-14T15:03:52;11.60;;;6.47;;
40164;SDS011;25882;51.120;17.248;2023-03-14T15:06:19;12.80;;;7.38;;
40164;SDS011;25882;51.120;17.248;2023-03-14T15:08:47;11.15;;;5.30;;
40164;SDS011;25882;51.120;17.248;2023-03-14T15:11:15;8.65;;;5.15;;